sensor_id;sensor_type;location;lat;lon;timestamp;temperature;humidity
61151;DHT22;47029;50.994;2.876;2022-08-25T00:01:29;23.30;99.90
61151;DHT22;47029;50.994;2.876;2022-08-25T00:03:56;23.30;99.90
61151;DHT22;47029;50.994;2.876;2022-08-25T00:06:22;23.30;99.90
61151;DHT22;47029;50.994;2.876;2022-08-25T00:08:49;23.30;99.90
61151;DHT22;47029;50.994;2.876;2022-08-25T00:11:22;23.30;99.90
61151;DHT22;47029;50.994;2.876;2022-08-25T00:13:51;23.20;99.90
61151;DHT22;47029;50.994;2.876;2022-08-25T00:16:19;23.20;99.90
61151;DHT22;47029;50.994;2.876;2022-08-25T00:18:49;23.20;99.90
61151;DHT22;47029;50.994;2.876;2022-08-25T00:21:15;23.20;99.90
61151;DHT22;47029;50.994;2.876;2022-08-25T00:23:42;23.30;99.90
61151;DHT22;47029;50.994;2.876;2022-08-25T00:26:09;23.20;99.90
61151;DHT22;47029;50.994;2.876;2022-08-25T00:28:35;23.30;99.90
61151;DHT22;47029;50.994;2.876;2022-08-25T00:31:02;23.10;99.90
61151;DHT22;47029;50.994;2.876;2022-08-25T00:33:29;23.20;99.90
61151;DHT22;47029;50.994;2.876;2022-08-25T00:35:57;23.10;99.90
61151;DHT22;47029;50.994;2.876;2022-08-25T00:38:25;23.10;99.90
61151;DHT22;47029;50.994;2.876;2022-08-25T00:40:51;22.90;99.90
61151;DHT22;47029;50.994;2.876;2022-08-25T00:43:57;23.00;99.90
61151;DHT22;47029;50.994;2.876;2022-08-25T00:46:28;23.00;99.90
61151;DHT22;47029;50.994;2.876;2022-08-25T00:49:06;22.90;99.90
61151;DHT22;47029;50.994;2.876;2022-08-25T00:51:44;23.40;99.90
61151;DHT22;47029;50.994;2.876;2022-08-25T00:54:18;23.00;99.90
61151;DHT22;47029;50.994;2.876;2022-08-25T00:56:47;23.00;99.90
61151;DHT22;47029;50.994;2.876;2022-08-25T00:59:14;22.90;99.90
61151;DHT22;47029;50.994;2.876;2022-08-25T01:01:41;22.70;99.90
61151;DHT22;47029;50.994;2.876;2022-08-25T01:04:07;22.70;99.90
61151;DHT22;47029;50.994;2.876;2022-08-25T01:06:36;22.70;99.90
61151;DHT22;47029;50.994;2.876;2022-08-25T01:09:04;22.70;99.90
61151;DHT22;47029;50.994;2.876;2022-08-25T01:11:31;22.70;99.90
61151;DHT22;47029;50.994;2.876;2022-08-25T01:13:57;22.80;99.90
61151;DHT22;47029;50.994;2.876;2022-08-25T01:16:27;22.90;99.90
61151;DHT22;47029;50.994;2.876;2022-08-25T01:18:56;22.80;99.90
61151;DHT22;47029;50.994;2.876;2022-08-25T01:21:24;22.90;99.90
61151;DHT22;47029;50.994;2.876;2022-08-25T01:23:51;22.80;99.90
61151;DHT22;47029;50.994;2.876;2022-08-25T01:26:18;22.50;99.90
61151;DHT22;47029;50.994;2.876;2022-08-25T01:28:46;22.50;99.90
61151;DHT22;47029;50.994;2.876;2022-08-25T01:31:32;22.30;99.90
61151;DHT22;47029;50.994;2.876;2022-08-25T01:33:58;22.70;99.90
61151;DHT22;47029;50.994;2.876;2022-08-25T01:36:26;22.30;99.90
61151;DHT22;47029;50.994;2.876;2022-08-25T01:38:53;22.40;99.90
61151;DHT22;47029;50.994;2.876;2022-08-25T01:42:02;22.40;99.90
61151;DHT22;47029;50.994;2.876;2022-08-25T01:44:30;22.70;99.90
61151;DHT22;47029;50.994;2.876;2022-08-25T01:46:57;22.70;99.90
61151;DHT22;47029;50.994;2.876;2022-08-25T01:49:23;22.80;99.90
61151;DHT22;47029;50.994;2.876;2022-08-25T01:52:01;22.80;99.90
61151;DHT22;47029;50.994;2.876;2022-08-25T01:54:29;22.90;99.90
61151;DHT22;47029;50.994;2.876;2022-08-25T01:56:57;23.00;99.90
61151;DHT22;47029;50.994;2.876;2022-08-25T01:59:23;22.90;99.90
61151;DHT22;47029;50.994;2.876;2022-08-25T02:01:51;22.90;99.90
61151;DHT22;47029;50.994;2.876;2022-08-25T02:04:17;22.90;99.90
61151;DHT22;47029;50.994;2.876;2022-08-25T02:06:43;22.90;99.90
61151;DHT22;47029;50.994;2.876;2022-08-25T02:09:16;22.80;99.90
61151;DHT22;47029;50.994;2.876;2022-08-25T02:11:44;22.80;99.90
61151;DHT22;47029;50.994;2.876;2022-08-25T02:14:12;22.70;99.90
61151;DHT22;47029;50.994;2.876;2022-08-25T02:16:39;22.70;99.90
61151;DHT22;47029;50.994;2.876;2022-08-25T02:19:08;22.70;99.90
61151;DHT22;47029;50.994;2.876;2022-08-25T02:21:34;22.60;99.90
61151;DHT22;47029;50.994;2.876;2022-08-25T02:24:01;22.60;99.90
61151;DHT22;47029;50.994;2.876;2022-08-25T02:26:27;22.60;99.90
61151;DHT22;47029;50.994;2.876;2022-08-25T02:28:53;22.60;99.90
61151;DHT22;47029;50.994;2.876;2022-08-25T02:31:21;22.60;99.90
61151;DHT22;47029;50.994;2.876;2022-08-25T02:33:47;22.50;99.90
61151;DHT22;47029;50.994;2.876;2022-08-25T02:36:14;22.40;99.90
61151;DHT22;47029;50.994;2.876;2022-08-25T02:38:40;22.30;99.90
61151;DHT22;47029;50.994;2.876;2022-08-25T02:41:14;22.30;99.90
61151;DHT22;47029;50.994;2.876;2022-08-25T02:43:41;22.20;99.90
61151;DHT22;47029;50.994;2.876;2022-08-25T02:46:08;22.20;99.90
61151;DHT22;47029;50.994;2.876;2022-08-25T02:48:35;22.10;99.90
61151;DHT22;47029;50.994;2.876;2022-08-25T02:51:01;21.90;99.90
61151;DHT22;47029;50.994;2.876;2022-08-25T02:53:28;21.80;99.90
61151;DHT22;47029;50.994;2.876;2022-08-25T02:55:54;21.80;99.90
61151;DHT22;47029;50.994;2.876;2022-08-25T02:58:20;21.80;99.90
61151;DHT22;47029;50.994;2.876;2022-08-25T03:00:47;21.80;99.90
61151;DHT22;47029;50.994;2.876;2022-08-25T03:03:13;21.80;99.90
61151;DHT22;47029;50.994;2.876;2022-08-25T03:05:39;21.70;99.90
61151;DHT22;47029;50.994;2.876;2022-08-25T03:08:06;21.70;99.90
61151;DHT22;47029;50.994;2.876;2022-08-25T03:10:32;21.80;99.90
61151;DHT22;47029;50.994;2.876;2022-08-25T03:12:59;21.80;99.90
61151;DHT22;47029;50.994;2.876;2022-08-25T03:15:24;21.80;99.90
61151;DHT22;47029;50.994;2.876;2022-08-25T03:17:53;21.80;99.90
61151;DHT22;47029;50.994;2.876;2022-08-25T03:20:21;21.80;99.90
61151;DHT22;47029;50.994;2.876;2022-08-25T03:22:47;21.80;99.90
61151;DHT22;47029;50.994;2.876;2022-08-25T03:25:14;21.70;99.90
61151;DHT22;47029;50.994;2.876;2022-08-25T03:27:59;21.60;99.90
61151;DHT22;47029;50.994;2.876;2022-08-25T03:30:26;21.60;99.90
61151;DHT22;47029;50.994;2.876;2022-08-25T03:32:52;21.60;99.90
61151;DHT22;47029;50.994;2.876;2022-08-25T03:35:18;21.70;99.90
61151;DHT22;47029;50.994;2.876;2022-08-25T03:37:44;21.70;99.90
61151;DHT22;47029;50.994;2.876;2022-08-25T03:40:14;21.60;99.90
61151;DHT22;47029;50.994;2.876;2022-08-25T03:42:44;21.50;99.90
61151;DHT22;47029;50.994;2.876;2022-08-25T03:45:12;21.50;99.90
61151;DHT22;47029;50.994;2.876;2022-08-25T03:47:38;21.50;99.90
61151;DHT22;47029;50.994;2.876;2022-08-25T03:50:06;21.60;99.90
61151;DHT22;47029;50.994;2.876;2022-08-25T03:52:33;21.60;99.90
61151;DHT22;47029;50.994;2.876;2022-08-25T03:54:59;21.60;99.90
61151;DHT22;47029;50.994;2.876;2022-08-25T03:57:25;21.60;99.90
61151;DHT22;47029;50.994;2.876;2022-08-25T03:59:51;21.60;99.90
61151;DHT22;47029;50.994;2.876;2022-08-25T04:02:17;21.60;99.90
61151;DHT22;47029;50.994;2.876;2022-08-25T04:04:43;21.60;99.90
61151;DHT22;47029;50.994;2.876;2022-08-25T04:07:10;21.60;99.90
61151;DHT22;47029;50.994;2.876;2022-08-25T04:09:36;21.60;99.90
61151;DHT22;47029;50.994;2.876;2022-08-25T04:12:02;21.50;99.90
61151;DHT22;47029;50.994;2.876;2022-08-25T04:14:29;21.40;99.90
61151;DHT22;47029;50.994;2.876;2022-08-25T04:16:55;21.40;99.90
61151;DHT22;47029;50.994;2.876;2022-08-25T04:19:21;21.30;99.90
61151;DHT22;47029;50.994;2.876;2022-08-25T04:21:48;21.40;99.90
61151;DHT22;47029;50.994;2.876;2022-08-25T04:24:14;21.30;99.90
61151;DHT22;47029;50.994;2.876;2022-08-25T04:26:43;21.30;99.90
61151;DHT22;47029;50.994;2.876;2022-08-25T04:29:11;21.20;99.90
61151;DHT22;47029;50.994;2.876;2022-08-25T04:31:40;21.10;99.90
61151;DHT22;47029;50.994;2.876;2022-08-25T04:34:06;21.00;99.90
61151;DHT22;47029;50.994;2.876;2022-08-25T04:36:32;21.10;99.90
61151;DHT22;47029;50.994;2.876;2022-08-25T04:38:58;21.00;99.90
61151;DHT22;47029;50.994;2.876;2022-08-25T04:41:25;21.00;99.90
61151;DHT22;47029;50.994;2.876;2022-08-25T04:43:52;20.90;99.90
61151;DHT22;47029;50.994;2.876;2022-08-25T04:46:23;20.90;99.90
61151;DHT22;47029;50.994;2.876;2022-08-25T04:48:51;20.90;99.90
61151;DHT22;47029;50.994;2.876;2022-08-25T04:51:20;20.90;99.90
61151;DHT22;47029;50.994;2.876;2022-08-25T04:53:48;21.00;99.90
61151;DHT22;47029;50.994;2.876;2022-08-25T04:56:16;21.00;99.90
61151;DHT22;47029;50.994;2.876;2022-08-25T04:58:43;21.00;99.90
61151;DHT22;47029;50.994;2.876;2022-08-25T05:01:14;21.00;99.90
61151;DHT22;47029;50.994;2.876;2022-08-25T05:03:41;21.00;99.90
61151;DHT22;47029;50.994;2.876;2022-08-25T05:06:07;20.90;99.90
61151;DHT22;47029;50.994;2.876;2022-08-25T05:08:33;20.90;99.90
61151;DHT22;47029;50.994;2.876;2022-08-25T05:11:08;21.00;99.90
61151;DHT22;47029;50.994;2.876;2022-08-25T05:13:35;21.60;99.90
61151;DHT22;47029;50.994;2.876;2022-08-25T05:16:02;21.10;99.90
61151;DHT22;47029;50.994;2.876;2022-08-25T05:18:29;21.20;99.90
61151;DHT22;47029;50.994;2.876;2022-08-25T05:20:56;21.20;99.90
61151;DHT22;47029;50.994;2.876;2022-08-25T05:23:25;21.30;99.90
61151;DHT22;47029;50.994;2.876;2022-08-25T05:25:52;21.30;99.90
61151;DHT22;47029;50.994;2.876;2022-08-25T05:28:19;21.30;99.90
61151;DHT22;47029;50.994;2.876;2022-08-25T05:30:46;21.20;99.90
61151;DHT22;47029;50.994;2.876;2022-08-25T05:33:15;21.20;99.90
61151;DHT22;47029;50.994;2.876;2022-08-25T05:35:41;21.30;99.90
61151;DHT22;47029;50.994;2.876;2022-08-25T05:38:07;21.30;99.90
61151;DHT22;47029;50.994;2.876;2022-08-25T05:40:35;21.20;99.90
61151;DHT22;47029;50.994;2.876;2022-08-25T05:43:01;21.30;99.90
61151;DHT22;47029;50.994;2.876;2022-08-25T05:45:27;21.30;99.90
61151;DHT22;47029;50.994;2.876;2022-08-25T05:47:53;21.30;99.90
61151;DHT22;47029;50.994;2.876;2022-08-25T05:50:19;21.50;99.90
61151;DHT22;47029;50.994;2.876;2022-08-25T05:52:44;21.70;99.90
61151;DHT22;47029;50.994;2.876;2022-08-25T05:55:11;21.90;99.90
61151;DHT22;47029;50.994;2.876;2022-08-25T05:57:37;22.00;99.90
61151;DHT22;47029;50.994;2.876;2022-08-25T06:00:05;22.10;99.90
61151;DHT22;47029;50.994;2.876;2022-08-25T06:02:34;22.20;99.90
61151;DHT22;47029;50.994;2.876;2022-08-25T06:05:14;22.20;99.90
61151;DHT22;47029;50.994;2.876;2022-08-25T06:07:41;22.30;99.90
61151;DHT22;47029;50.994;2.876;2022-08-25T06:10:08;22.40;99.90
61151;DHT22;47029;50.994;2.876;2022-08-25T06:12:38;22.40;99.90
61151;DHT22;47029;50.994;2.876;2022-08-25T06:15:05;22.40;99.90
61151;DHT22;47029;50.994;2.876;2022-08-25T06:17:31;22.30;99.90
61151;DHT22;47029;50.994;2.876;2022-08-25T06:19:57;22.30;99.90
61151;DHT22;47029;50.994;2.876;2022-08-25T06:22:23;22.40;99.90
61151;DHT22;47029;50.994;2.876;2022-08-25T06:24:52;22.60;99.90
61151;DHT22;47029;50.994;2.876;2022-08-25T06:27:18;22.70;99.90
61151;DHT22;47029;50.994;2.876;2022-08-25T06:29:44;22.80;99.90
61151;DHT22;47029;50.994;2.876;2022-08-25T06:32:09;22.90;99.90
61151;DHT22;47029;50.994;2.876;2022-08-25T06:34:35;23.10;99.90
61151;DHT22;47029;50.994;2.876;2022-08-25T06:37:01;23.10;99.90
61151;DHT22;47029;50.994;2.876;2022-08-25T06:39:29;23.30;99.90
61151;DHT22;47029;50.994;2.876;2022-08-25T06:41:57;23.30;99.90
61151;DHT22;47029;50.994;2.876;2022-08-25T06:44:25;23.50;99.90
61151;DHT22;47029;50.994;2.876;2022-08-25T06:46:52;23.60;99.90
61151;DHT22;47029;50.994;2.876;2022-08-25T06:49:18;23.40;99.90
61151;DHT22;47029;50.994;2.876;2022-08-25T06:51:44;23.50;99.90
61151;DHT22;47029;50.994;2.876;2022-08-25T06:54:10;23.60;99.90
61151;DHT22;47029;50.994;2.876;2022-08-25T06:56:38;23.80;99.90
61151;DHT22;47029;50.994;2.876;2022-08-25T06:59:05;23.90;99.90
61151;DHT22;47029;50.994;2.876;2022-08-25T07:01:32;24.10;99.90
61151;DHT22;47029;50.994;2.876;2022-08-25T07:03:59;24.10;99.90
61151;DHT22;47029;50.994;2.876;2022-08-25T07:06:27;24.40;99.90
61151;DHT22;47029;50.994;2.876;2022-08-25T07:08:54;24.60;99.90
61151;DHT22;47029;50.994;2.876;2022-08-25T07:11:19;25.00;99.70
61151;DHT22;47029;50.994;2.876;2022-08-25T07:13:46;24.90;99.20
61151;DHT22;47029;50.994;2.876;2022-08-25T07:16:12;24.90;98.80
61151;DHT22;47029;50.994;2.876;2022-08-25T07:18:41;25.20;98.00
61151;DHT22;47029;50.994;2.876;2022-08-25T07:21:06;25.20;97.20
61151;DHT22;47029;50.994;2.876;2022-08-25T07:23:32;25.20;96.40
61151;DHT22;47029;50.994;2.876;2022-08-25T07:26:09;25.20;96.30
61151;DHT22;47029;50.994;2.876;2022-08-25T07:28:35;25.30;96.50
61151;DHT22;47029;50.994;2.876;2022-08-25T07:31:01;25.30;96.40
61151;DHT22;47029;50.994;2.876;2022-08-25T07:33:27;25.40;96.00
61151;DHT22;47029;50.994;2.876;2022-08-25T07:35:52;25.60;96.30
61151;DHT22;47029;50.994;2.876;2022-08-25T07:38:18;25.60;95.80
61151;DHT22;47029;50.994;2.876;2022-08-25T07:40:44;25.70;95.90
61151;DHT22;47029;50.994;2.876;2022-08-25T07:43:10;25.90;95.50
61151;DHT22;47029;50.994;2.876;2022-08-25T07:45:37;26.20;95.80
61151;DHT22;47029;50.994;2.876;2022-08-25T07:48:09;26.40;94.40
61151;DHT22;47029;50.994;2.876;2022-08-25T07:50:37;26.20;94.30
61151;DHT22;47029;50.994;2.876;2022-08-25T07:53:04;26.20;94.90
61151;DHT22;47029;50.994;2.876;2022-08-25T07:55:30;26.40;93.80
61151;DHT22;47029;50.994;2.876;2022-08-25T07:57:57;26.60;93.90
61151;DHT22;47029;50.994;2.876;2022-08-25T08:00:25;26.90;94.30
61151;DHT22;47029;50.994;2.876;2022-08-25T08:02:52;27.20;92.90
61151;DHT22;47029;50.994;2.876;2022-08-25T08:05:18;27.40;91.80
61151;DHT22;47029;50.994;2.876;2022-08-25T08:07:44;27.30;91.70
61151;DHT22;47029;50.994;2.876;2022-08-25T08:10:12;27.50;91.20
61151;DHT22;47029;50.994;2.876;2022-08-25T08:12:37;27.50;90.90
61151;DHT22;47029;50.994;2.876;2022-08-25T08:15:04;27.70;90.90
61151;DHT22;47029;50.994;2.876;2022-08-25T08:17:30;28.00;89.90
61151;DHT22;47029;50.994;2.876;2022-08-25T08:19:56;28.10;90.10
61151;DHT22;47029;50.994;2.876;2022-08-25T08:22:22;28.10;89.00
61151;DHT22;47029;50.994;2.876;2022-08-25T08:24:48;28.40;86.10
61151;DHT22;47029;50.994;2.876;2022-08-25T08:27:14;28.20;86.90
61151;DHT22;47029;50.994;2.876;2022-08-25T08:29:40;28.00;87.60
61151;DHT22;47029;50.994;2.876;2022-08-25T08:32:09;27.80;89.00
61151;DHT22;47029;50.994;2.876;2022-08-25T08:34:35;27.60;89.90
61151;DHT22;47029;50.994;2.876;2022-08-25T08:37:01;27.60;91.50
61151;DHT22;47029;50.994;2.876;2022-08-25T08:39:28;26.30;94.80
61151;DHT22;47029;50.994;2.876;2022-08-25T08:50:46;26.80;93.80
61151;DHT22;47029;50.994;2.876;2022-08-25T08:56:10;27.10;93.20
61151;DHT22;47029;50.994;2.876;2022-08-25T08:58:46;27.20;93.40
61151;DHT22;47029;50.994;2.876;2022-08-25T09:01:24;27.50;92.90
61151;DHT22;47029;50.994;2.876;2022-08-25T09:04:02;27.60;93.50
61151;DHT22;47029;50.994;2.876;2022-08-25T09:06:40;27.50;93.80
61151;DHT22;47029;50.994;2.876;2022-08-25T09:09:08;27.40;94.70
61151;DHT22;47029;50.994;2.876;2022-08-25T09:12:17;27.30;94.80
61151;DHT22;47029;50.994;2.876;2022-08-25T09:28:31;27.50;95.70
61151;DHT22;47029;50.994;2.876;2022-08-25T09:33:28;28.00;95.40
61151;DHT22;47029;50.994;2.876;2022-08-25T09:35:55;28.00;95.20
61151;DHT22;47029;50.994;2.876;2022-08-25T09:38:22;28.10;94.60
61151;DHT22;47029;50.994;2.876;2022-08-25T09:40:50;28.10;94.80
61151;DHT22;47029;50.994;2.876;2022-08-25T09:43:22;28.10;95.20
61151;DHT22;47029;50.994;2.876;2022-08-25T09:48:34;28.00;95.60
61151;DHT22;47029;50.994;2.876;2022-08-25T09:51:19;27.70;95.80
61151;DHT22;47029;50.994;2.876;2022-08-25T09:54:02;27.30;97.00
61151;DHT22;47029;50.994;2.876;2022-08-25T09:56:31;27.30;97.00
61151;DHT22;47029;50.994;2.876;2022-08-25T09:59:34;27.30;97.90
61151;DHT22;47029;50.994;2.876;2022-08-25T10:02:05;27.50;97.80
61151;DHT22;47029;50.994;2.876;2022-08-25T10:04:45;27.20;98.60
61151;DHT22;47029;50.994;2.876;2022-08-25T10:07:24;27.00;99.30
61151;DHT22;47029;50.994;2.876;2022-08-25T10:09:59;26.90;99.00
61151;DHT22;47029;50.994;2.876;2022-08-25T10:12:41;27.00;99.00
61151;DHT22;47029;50.994;2.876;2022-08-25T10:17:50;27.20;99.50
61151;DHT22;47029;50.994;2.876;2022-08-25T10:20:23;27.30;99.80
61151;DHT22;47029;50.994;2.876;2022-08-25T10:22:50;27.50;99.50
61151;DHT22;47029;50.994;2.876;2022-08-25T10:25:27;27.40;99.50
61151;DHT22;47029;50.994;2.876;2022-08-25T10:30:54;27.50;99.70
61151;DHT22;47029;50.994;2.876;2022-08-25T10:36:43;27.60;99.90
61151;DHT22;47029;50.994;2.876;2022-08-25T10:39:29;27.50;99.90
61151;DHT22;47029;50.994;2.876;2022-08-25T10:45:26;27.60;99.90
61151;DHT22;47029;50.994;2.876;2022-08-25T10:48:33;27.40;99.90
61151;DHT22;47029;50.994;2.876;2022-08-25T11:04:45;27.10;99.90
61151;DHT22;47029;50.994;2.876;2022-08-25T11:09:53;26.80;99.90
61151;DHT22;47029;50.994;2.876;2022-08-25T11:12:48;26.70;99.90
61151;DHT22;47029;50.994;2.876;2022-08-25T11:15:37;26.30;99.90
61151;DHT22;47029;50.994;2.876;2022-08-25T11:18:11;26.50;99.90
61151;DHT22;47029;50.994;2.876;2022-08-25T11:21:11;26.70;99.90
61151;DHT22;47029;50.994;2.876;2022-08-25T11:23:42;26.80;99.90
61151;DHT22;47029;50.994;2.876;2022-08-25T11:26:12;27.00;99.90
61151;DHT22;47029;50.994;2.876;2022-08-25T11:29:11;27.20;99.90
61151;DHT22;47029;50.994;2.876;2022-08-25T11:31:44;27.40;99.90
61151;DHT22;47029;50.994;2.876;2022-08-25T11:34:11;27.50;99.40
61151;DHT22;47029;50.994;2.876;2022-08-25T11:36:47;27.40;98.90
61151;DHT22;47029;50.994;2.876;2022-08-25T11:42:01;27.60;98.60
61151;DHT22;47029;50.994;2.876;2022-08-25T11:50:30;27.30;99.30
61151;DHT22;47029;50.994;2.876;2022-08-25T11:53:02;27.40;99.10
61151;DHT22;47029;50.994;2.876;2022-08-25T11:56:00;27.40;99.10
61151;DHT22;47029;50.994;2.876;2022-08-25T11:58:50;27.00;99.80
61151;DHT22;47029;50.994;2.876;2022-08-25T12:04:29;26.70;99.90
61151;DHT22;47029;50.994;2.876;2022-08-25T12:14:53;26.60;99.90
61151;DHT22;47029;50.994;2.876;2022-08-25T12:17:23;26.60;99.80
61151;DHT22;47029;50.994;2.876;2022-08-25T12:19:53;26.80;99.60
61151;DHT22;47029;50.994;2.876;2022-08-25T12:28:10;26.10;99.90
61151;DHT22;47029;50.994;2.876;2022-08-25T12:30:49;26.10;99.40
61151;DHT22;47029;50.994;2.876;2022-08-25T12:36:31;26.10;99.40
61151;DHT22;47029;50.994;2.876;2022-08-25T12:39:19;26.10;99.50
61151;DHT22;47029;50.994;2.876;2022-08-25T12:42:06;26.00;99.40
61151;DHT22;47029;50.994;2.876;2022-08-25T12:44:46;25.80;99.80
61151;DHT22;47029;50.994;2.876;2022-08-25T12:49:43;25.30;99.90
61151;DHT22;47029;50.994;2.876;2022-08-25T12:52:21;25.10;99.90
61151;DHT22;47029;50.994;2.876;2022-08-25T12:54:57;25.00;99.90
61151;DHT22;47029;50.994;2.876;2022-08-25T12:57:59;25.00;99.90
61151;DHT22;47029;50.994;2.876;2022-08-25T13:00:44;24.90;99.90
61151;DHT22;47029;50.994;2.876;2022-08-25T13:09:03;25.20;99.90
61151;DHT22;47029;50.994;2.876;2022-08-25T13:12:01;24.90;99.90
61151;DHT22;47029;50.994;2.876;2022-08-25T13:14:37;25.00;99.90
61151;DHT22;47029;50.994;2.876;2022-08-25T13:17:04;25.10;99.90
61151;DHT22;47029;50.994;2.876;2022-08-25T13:19:30;25.20;99.90
61151;DHT22;47029;50.994;2.876;2022-08-25T13:21:57;25.10;99.90
61151;DHT22;47029;50.994;2.876;2022-08-25T13:24:27;25.20;99.90
61151;DHT22;47029;50.994;2.876;2022-08-25T13:26:59;25.00;99.90
61151;DHT22;47029;50.994;2.876;2022-08-25T13:29:31;25.20;99.90
61151;DHT22;47029;50.994;2.876;2022-08-25T13:32:04;25.40;99.90
61151;DHT22;47029;50.994;2.876;2022-08-25T13:34:38;25.30;99.90
61151;DHT22;47029;50.994;2.876;2022-08-25T13:37:13;25.00;99.90
61151;DHT22;47029;50.994;2.876;2022-08-25T13:40:24;25.00;99.90
61151;DHT22;47029;50.994;2.876;2022-08-25T13:42:54;25.00;99.90
61151;DHT22;47029;50.994;2.876;2022-08-25T13:45:23;25.20;99.90
61151;DHT22;47029;50.994;2.876;2022-08-25T13:47:50;25.60;99.70
61151;DHT22;47029;50.994;2.876;2022-08-25T13:52:49;25.20;99.90
61151;DHT22;47029;50.994;2.876;2022-08-25T13:55:23;25.20;99.90
61151;DHT22;47029;50.994;2.876;2022-08-25T13:57:49;25.30;99.90
61151;DHT22;47029;50.994;2.876;2022-08-25T14:00:33;25.00;99.90
61151;DHT22;47029;50.994;2.876;2022-08-25T14:03:03;24.70;99.90
61151;DHT22;47029;50.994;2.876;2022-08-25T14:05:39;24.70;99.90
61151;DHT22;47029;50.994;2.876;2022-08-25T14:08:07;24.90;99.90
61151;DHT22;47029;50.994;2.876;2022-08-25T14:11:25;25.10;99.90
61151;DHT22;47029;50.994;2.876;2022-08-25T14:13:59;25.50;99.90
61151;DHT22;47029;50.994;2.876;2022-08-25T14:16:25;25.30;99.90
61151;DHT22;47029;50.994;2.876;2022-08-25T14:18:56;25.20;99.90
61151;DHT22;47029;50.994;2.876;2022-08-25T14:21:25;25.10;99.70
61151;DHT22;47029;50.994;2.876;2022-08-25T14:23:53;24.90;99.20
61151;DHT22;47029;50.994;2.876;2022-08-25T14:26:19;24.90;99.90
61151;DHT22;47029;50.994;2.876;2022-08-25T14:28:44;25.10;99.90
61151;DHT22;47029;50.994;2.876;2022-08-25T14:31:13;25.20;99.90
61151;DHT22;47029;50.994;2.876;2022-08-25T14:33:56;25.40;99.90
61151;DHT22;47029;50.994;2.876;2022-08-25T14:36:23;25.20;99.50
61151;DHT22;47029;50.994;2.876;2022-08-25T14:38:48;25.40;99.90
61151;DHT22;47029;50.994;2.876;2022-08-25T14:41:14;25.40;99.90
61151;DHT22;47029;50.994;2.876;2022-08-25T14:43:40;25.50;99.90
61151;DHT22;47029;50.994;2.876;2022-08-25T14:46:17;25.50;99.90
61151;DHT22;47029;50.994;2.876;2022-08-25T14:48:44;25.40;99.50
61151;DHT22;47029;50.994;2.876;2022-08-25T14:51:13;25.20;99.90
61151;DHT22;47029;50.994;2.876;2022-08-25T14:53:40;25.00;99.80
61151;DHT22;47029;50.994;2.876;2022-08-25T14:56:07;25.00;99.90
61151;DHT22;47029;50.994;2.876;2022-08-25T14:58:34;24.90;99.90
61151;DHT22;47029;50.994;2.876;2022-08-25T15:01:00;24.70;99.90
61151;DHT22;47029;50.994;2.876;2022-08-25T15:03:31;24.70;99.90
61151;DHT22;47029;50.994;2.876;2022-08-25T15:05:59;24.40;99.90
61151;DHT22;47029;50.994;2.876;2022-08-25T15:08:25;24.20;99.90
61151;DHT22;47029;50.994;2.876;2022-08-25T15:11:09;24.00;99.90
61151;DHT22;47029;50.994;2.876;2022-08-25T15:13:35;23.80;99.90
61151;DHT22;47029;50.994;2.876;2022-08-25T15:16:02;23.90;99.90
61151;DHT22;47029;50.994;2.876;2022-08-25T15:18:28;23.90;99.90
61151;DHT22;47029;50.994;2.876;2022-08-25T15:20:54;24.00;99.90
61151;DHT22;47029;50.994;2.876;2022-08-25T15:23:20;23.90;99.90
61151;DHT22;47029;50.994;2.876;2022-08-25T15:25:47;24.10;99.90
61151;DHT22;47029;50.994;2.876;2022-08-25T15:28:14;23.90;99.90
61151;DHT22;47029;50.994;2.876;2022-08-25T15:30:41;23.90;99.90
61151;DHT22;47029;50.994;2.876;2022-08-25T15:33:07;23.80;99.90
61151;DHT22;47029;50.994;2.876;2022-08-25T15:35:34;23.70;99.90
61151;DHT22;47029;50.994;2.876;2022-08-25T15:38:02;23.80;99.90
61151;DHT22;47029;50.994;2.876;2022-08-25T15:40:29;23.80;99.90
61151;DHT22;47029;50.994;2.876;2022-08-25T15:42:55;24.00;99.90
61151;DHT22;47029;50.994;2.876;2022-08-25T15:45:21;24.20;99.90
61151;DHT22;47029;50.994;2.876;2022-08-25T15:47:46;24.30;99.90
61151;DHT22;47029;50.994;2.876;2022-08-25T15:50:15;24.00;99.90
61151;DHT22;47029;50.994;2.876;2022-08-25T15:52:41;23.80;99.90
61151;DHT22;47029;50.994;2.876;2022-08-25T15:55:08;24.00;99.90
61151;DHT22;47029;50.994;2.876;2022-08-25T15:57:34;24.20;99.90
61151;DHT22;47029;50.994;2.876;2022-08-25T16:00:03;24.40;99.90
61151;DHT22;47029;50.994;2.876;2022-08-25T16:02:29;24.40;99.90
61151;DHT22;47029;50.994;2.876;2022-08-25T16:04:56;24.50;99.90
61151;DHT22;47029;50.994;2.876;2022-08-25T16:07:22;24.40;99.90
61151;DHT22;47029;50.994;2.876;2022-08-25T16:09:48;24.50;99.90
61151;DHT22;47029;50.994;2.876;2022-08-25T16:12:14;24.50;99.90
61151;DHT22;47029;50.994;2.876;2022-08-25T16:14:40;24.60;99.90
61151;DHT22;47029;50.994;2.876;2022-08-25T16:17:06;24.60;99.90
61151;DHT22;47029;50.994;2.876;2022-08-25T16:19:32;24.60;99.90
61151;DHT22;47029;50.994;2.876;2022-08-25T16:21:59;24.80;99.90
61151;DHT22;47029;50.994;2.876;2022-08-25T16:24:26;24.60;99.90
61151;DHT22;47029;50.994;2.876;2022-08-25T16:26:51;24.40;99.90
61151;DHT22;47029;50.994;2.876;2022-08-25T16:29:18;24.50;99.90
61151;DHT22;47029;50.994;2.876;2022-08-25T16:31:44;24.40;99.90
61151;DHT22;47029;50.994;2.876;2022-08-25T16:34:10;24.30;99.90
61151;DHT22;47029;50.994;2.876;2022-08-25T16:36:37;24.20;99.90
61151;DHT22;47029;50.994;2.876;2022-08-25T16:39:04;24.10;99.90
61151;DHT22;47029;50.994;2.876;2022-08-25T16:41:31;24.10;99.90
61151;DHT22;47029;50.994;2.876;2022-08-25T16:44:02;24.10;99.90
61151;DHT22;47029;50.994;2.876;2022-08-25T16:46:28;23.90;99.90
61151;DHT22;47029;50.994;2.876;2022-08-25T16:48:59;23.90;99.90
61151;DHT22;47029;50.994;2.876;2022-08-25T16:51:25;23.90;99.90
61151;DHT22;47029;50.994;2.876;2022-08-25T16:53:51;24.00;99.90
61151;DHT22;47029;50.994;2.876;2022-08-25T16:56:36;24.00;99.90
61151;DHT22;47029;50.994;2.876;2022-08-25T16:59:04;23.80;99.90
61151;DHT22;47029;50.994;2.876;2022-08-25T17:01:30;23.70;99.90
61151;DHT22;47029;50.994;2.876;2022-08-25T17:03:58;23.70;99.90
61151;DHT22;47029;50.994;2.876;2022-08-25T17:06:26;23.80;99.90
61151;DHT22;47029;50.994;2.876;2022-08-25T17:08:54;23.80;99.90
61151;DHT22;47029;50.994;2.876;2022-08-25T17:11:23;23.90;99.90
61151;DHT22;47029;50.994;2.876;2022-08-25T17:13:52;23.50;99.90
61151;DHT22;47029;50.994;2.876;2022-08-25T17:16:20;23.50;99.90
61151;DHT22;47029;50.994;2.876;2022-08-25T17:18:47;23.40;99.90
61151;DHT22;47029;50.994;2.876;2022-08-25T17:21:14;23.50;99.90
61151;DHT22;47029;50.994;2.876;2022-08-25T17:23:42;23.50;99.90
61151;DHT22;47029;50.994;2.876;2022-08-25T17:26:10;23.40;99.90